sensor_id;sensor_type;location;lat;lon;timestamp;pressure;altitude;pressure_sealevel;temperature;humidity
51807;BME280;37865;51.304;9.536;2023-07-20T00:02:09;99670.72;;;17.28;89.10
51807;BME280;37865;51.304;9.536;2023-07-20T00:04:34;99665.56;;;17.21;89.84
51807;BME280;37865;51.304;9.536;2023-07-20T00:06:59;99664.34;;;17.14;90.41
51807;BME280;37865;51.304;9.536;2023-07-20T00:09:27;99657.66;;;17.01;91.04
51807;BME280;37865;51.304;9.536;2023-07-20T00:11:53;99664.41;;;16.90;91.56
51807;BME280;37865;51.304;9.536;2023-07-20T00:14:18;99659.06;;;16.80;92.39
51807;BME280;37865;51.304;9.536;2023-07-20T00:16:45;99665.25;;;16.72;92.72
51807;BME280;37865;51.304;9.536;2023-07-20T00:19:12;99657.56;;;16.69;93.02
51807;BME280;37865;51.304;9.536;2023-07-20T00:21:38;99660.09;;;16.65;93.18
51807;BME280;37865;51.304;9.536;2023-07-20T00:24:06;99662.84;;;16.65;93.35
51807;BME280;37865;51.304;9.536;2023-07-20T00:26:31;99656.53;;;16.65;93.48
51807;BME280;37865;51.304;9.536;2023-07-20T00:28:57;99653.78;;;16.65;93.72
51807;BME280;37865;51.304;9.536;2023-07-20T00:31:22;99647.75;;;16.63;94.10
51807;BME280;37865;51.304;9.536;2023-07-20T00:33:48;99644.47;;;16.61;94.31
51807;BME280;37865;51.304;9.536;2023-07-20T00:36:13;99641.50;;;16.57;94.45
51807;BME280;37865;51.304;9.536;2023-07-20T00:38:39;99651.16;;;16.55;94.61
51807;BME280;37865;51.304;9.536;2023-07-20T00:41:04;99643.50;;;16.52;94.75
51807;BME280;37865;51.304;9.536;2023-07-20T00:43:29;99641.63;;;16.47;95.02
51807;BME280;37865;51.304;9.536;2023-07-20T00:45:55;99635.88;;;16.44;95.34
51807;BME280;37865;51.304;9.536;2023-07-20T00:48:21;99637.00;;;16.43;95.88
51807;BME280;37865;51.304;9.536;2023-07-20T00:50:46;99639.50;;;16.39;95.87
51807;BME280;37865;51.304;9.536;2023-07-20T00:53:13;99639.28;;;16.36;96.38
51807;BME280;37865;51.304;9.536;2023-07-20T00:55:39;99647.84;;;16.34;96.30
51807;BME280;37865;51.304;9.536;2023-07-20T00:58:04;99645.41;;;16.33;96.51
51807;BME280;37865;51.304;9.536;2023-07-20T01:00:30;99648.88;;;16.38;96.23
51807;BME280;37865;51.304;9.536;2023-07-20T01:02:55;99643.38;;;16.38;96.68
51807;BME280;37865;51.304;9.536;2023-07-20T01:05:21;99663.75;;;16.37;97.18
51807;BME280;37865;51.304;9.536;2023-07-20T01:08:06;99651.44;;;16.35;97.21
51807;BME280;37865;51.304;9.536;2023-07-20T01:10:46;99643.44;;;16.33;97.19
51807;BME280;37865;51.304;9.536;2023-07-20T01:13:17;99654.44;;;16.33;97.18
51807;BME280;37865;51.304;9.536;2023-07-20T01:15:49;99656.69;;;16.31;97.33
51807;BME280;37865;51.304;9.536;2023-07-20T01:18:14;99659.72;;;16.30;97.15
51807;BME280;37865;51.304;9.536;2023-07-20T01:20:39;99660.78;;;16.34;96.86
51807;BME280;37865;51.304;9.536;2023-07-20T01:26:28;99657.84;;;16.49;95.44
51807;BME280;37865;51.304;9.536;2023-07-20T01:29:08;99661.34;;;16.54;94.53
51807;BME280;37865;51.304;9.536;2023-07-20T01:31:37;99660.47;;;16.59;93.85
51807;BME280;37865;51.304;9.536;2023-07-20T01:34:05;99658.75;;;16.63;93.28
51807;BME280;37865;51.304;9.536;2023-07-20T01:36:35;99662.84;;;16.65;92.60
51807;BME280;37865;51.304;9.536;2023-07-20T01:39:01;99657.88;;;16.67;92.14
51807;BME280;37865;51.304;9.536;2023-07-20T01:41:27;99653.47;;;16.66;91.97
51807;BME280;37865;51.304;9.536;2023-07-20T01:43:52;99658.69;;;16.68;91.84
51807;BME280;37865;51.304;9.536;2023-07-20T01:46:18;99658.97;;;16.66;91.48
51807;BME280;37865;51.304;9.536;2023-07-20T01:48:44;99662.03;;;16.65;91.43
51807;BME280;37865;51.304;9.536;2023-07-20T01:51:09;99653.25;;;16.63;91.14
51807;BME280;37865;51.304;9.536;2023-07-20T01:53:34;99661.81;;;16.61;91.43
51807;BME280;37865;51.304;9.536;2023-07-20T01:56:00;99664.06;;;16.59;91.51
51807;BME280;37865;51.304;9.536;2023-07-20T01:58:25;99660.47;;;16.59;91.86
51807;BME280;37865;51.304;9.536;2023-07-20T02:00:50;99665.97;;;16.59;91.77
51807;BME280;37865;51.304;9.536;2023-07-20T02:03:16;99663.75;;;16.61;91.62
51807;BME280;37865;51.304;9.536;2023-07-20T02:05:45;99672.00;;;16.61;91.71
51807;BME280;37865;51.304;9.536;2023-07-20T02:08:10;99658.25;;;16.61;91.78
51807;BME280;37865;51.304;9.536;2023-07-20T02:10:36;99665.09;;;16.63;91.75
51807;BME280;37865;51.304;9.536;2023-07-20T02:13:01;99673.34;;;16.63;91.52
51807;BME280;37865;51.304;9.536;2023-07-20T02:15:27;99668.69;;;16.64;91.47
51807;BME280;37865;51.304;9.536;2023-07-20T02:17:52;99663.16;;;16.64;91.01
51807;BME280;37865;51.304;9.536;2023-07-20T02:20:18;99661.00;;;16.61;91.05
51807;BME280;37865;51.304;9.536;2023-07-20T02:22:44;99654.97;;;16.59;91.05
51807;BME280;37865;51.304;9.536;2023-07-20T02:25:10;99646.25;;;16.52;91.14
51807;BME280;37865;51.304;9.536;2023-07-20T02:27:36;99649.88;;;16.47;91.32
51807;BME280;37865;51.304;9.536;2023-07-20T02:30:02;99652.69;;;16.42;91.43
51807;BME280;37865;51.304;9.536;2023-07-20T02:32:28;99641.47;;;16.39;91.70
51807;BME280;37865;51.304;9.536;2023-07-20T02:34:53;99651.34;;;16.40;91.72
51807;BME280;37865;51.304;9.536;2023-07-20T02:37:19;99650.28;;;16.36;91.75
51807;BME280;37865;51.304;9.536;2023-07-20T02:39:44;99662.44;;;16.35;91.77
51807;BME280;37865;51.304;9.536;2023-07-20T02:42:10;99659.69;;;16.35;92.07
51807;BME280;37865;51.304;9.536;2023-07-20T02:44:35;99653.03;;;16.36;91.80
51807;BME280;37865;51.304;9.536;2023-07-20T02:47:00;99654.41;;;16.38;91.49
51807;BME280;37865;51.304;9.536;2023-07-20T02:49:26;99659.91;;;16.38;91.37
51807;BME280;37865;51.304;9.536;2023-07-20T02:51:52;99667.84;;;16.40;91.40
51807;BME280;37865;51.304;9.536;2023-07-20T02:54:17;99660.13;;;16.42;91.11
51807;BME280;37865;51.304;9.536;2023-07-20T02:56:42;99661.78;;;16.43;90.95
51807;BME280;37865;51.304;9.536;2023-07-20T02:59:08;99666.97;;;16.44;90.55
51807;BME280;37865;51.304;9.536;2023-07-20T03:01:33;99664.22;;;16.44;90.48
51807;BME280;37865;51.304;9.536;2023-07-20T03:03:59;99661.47;;;16.44;90.59
51807;BME280;37865;51.304;9.536;2023-07-20T03:06:24;99668.09;;;16.43;90.32
51807;BME280;37865;51.304;9.536;2023-07-20T03:08:49;99668.91;;;16.44;90.22
51807;BME280;37865;51.304;9.536;2023-07-20T03:11:17;99667.28;;;16.43;90.13
51807;BME280;37865;51.304;9.536;2023-07-20T03:13:43;99664.78;;;16.41;90.21
51807;BME280;37865;51.304;9.536;2023-07-20T03:16:10;99670.91;;;16.38;89.91
51807;BME280;37865;51.304;9.536;2023-07-20T03:18:39;99667.09;;;16.34;90.00
51807;BME280;37865;51.304;9.536;2023-07-20T03:21:05;99670.44;;;16.31;90.00
51807;BME280;37865;51.304;9.536;2023-07-20T03:23:31;99669.91;;;16.29;90.19
51807;BME280;37865;51.304;9.536;2023-07-20T03:25:57;99666.38;;;16.29;90.27
51807;BME280;37865;51.304;9.536;2023-07-20T03:28:22;99674.09;;;16.27;90.31
51807;BME280;37865;51.304;9.536;2023-07-20T03:30:53;99672.44;;;16.26;90.39
51807;BME280;37865;51.304;9.536;2023-07-20T03:33:19;99672.22;;;16.22;90.35
51807;BME280;37865;51.304;9.536;2023-07-20T03:35:44;99683.50;;;16.21;90.32
51807;BME280;37865;51.304;9.536;2023-07-20T03:38:10;99675.03;;;16.17;90.62
51807;BME280;37865;51.304;9.536;2023-07-20T03:40:35;99670.13;;;16.14;91.03
51807;BME280;37865;51.304;9.536;2023-07-20T03:43:00;99672.63;;;16.10;90.93
51807;BME280;37865;51.304;9.536;2023-07-20T03:45:26;99666.06;;;16.06;91.07
51807;BME280;37865;51.304;9.536;2023-07-20T03:47:51;99669.41;;;16.03;91.24
51807;BME280;37865;51.304;9.536;2023-07-20T03:50:16;99670.81;;;16.01;91.61
51807;BME280;37865;51.304;9.536;2023-07-20T03:52:42;99668.06;;;16.01;91.75
51807;BME280;37865;51.304;9.536;2023-07-20T03:55:07;99667.53;;;15.99;91.74
51807;BME280;37865;51.304;9.536;2023-07-20T03:57:32;99670.28;;;15.99;91.94
51807;BME280;37865;51.304;9.536;2023-07-20T03:59:58;99676.88;;;15.98;91.65
51807;BME280;37865;51.304;9.536;2023-07-20T04:02:23;99676.88;;;15.98;91.69
51807;BME280;37865;51.304;9.536;2023-07-20T04:04:49;99679.13;;;15.96;91.67
51807;BME280;37865;51.304;9.536;2023-07-20T04:07:14;99681.06;;;15.95;91.55
51807;BME280;37865;51.304;9.536;2023-07-20T04:09:39;99684.56;;;16.01;91.30
51807;BME280;37865;51.304;9.536;2023-07-20T04:12:06;99685.41;;;16.01;91.30
51807;BME280;37865;51.304;9.536;2023-07-20T04:14:31;99678.19;;;16.05;90.94
51807;BME280;37865;51.304;9.536;2023-07-20T04:16:56;99682.81;;;16.10;90.56
51807;BME280;37865;51.304;9.536;2023-07-20T04:19:22;99678.38;;;16.14;90.60
51807;BME280;37865;51.304;9.536;2023-07-20T04:21:47;99677.47;;;16.19;89.93
51807;BME280;37865;51.304;9.536;2023-07-20T04:24:12;99672.97;;;16.28;89.23
51807;BME280;37865;51.304;9.536;2023-07-20T04:26:38;99682.78;;;16.34;89.04
51807;BME280;37865;51.304;9.536;2023-07-20T04:29:03;99676.72;;;16.37;88.83
51807;BME280;37865;51.304;9.536;2023-07-20T04:31:28;99677.25;;;16.39;88.85
51807;BME280;37865;51.304;9.536;2023-07-20T04:33:55;99681.09;;;16.38;88.38
51807;BME280;37865;51.304;9.536;2023-07-20T04:36:20;99680.00;;;16.39;88.37
51807;BME280;37865;51.304;9.536;2023-07-20T04:38:46;99679.47;;;16.37;88.35
51807;BME280;37865;51.304;9.536;2023-07-20T04:41:11;99681.69;;;16.35;88.31
51807;BME280;37865;51.304;9.536;2023-07-20T04:43:43;99677.59;;;16.32;88.49
51807;BME280;37865;51.304;9.536;2023-07-20T04:46:11;99682.28;;;16.32;88.64
51807;BME280;37865;51.304;9.536;2023-07-20T04:48:37;99688.28;;;16.34;88.64
51807;BME280;37865;51.304;9.536;2023-07-20T04:51:03;99691.00;;;16.39;88.57
51807;BME280;37865;51.304;9.536;2023-07-20T04:53:28;99689.50;;;16.46;88.11
51807;BME280;37865;51.304;9.536;2023-07-20T04:55:53;99685.31;;;16.54;87.66
51807;BME280;37865;51.304;9.536;2023-07-20T04:58:20;99691.84;;;16.58;87.27
51807;BME280;37865;51.304;9.536;2023-07-20T05:00:45;99687.13;;;16.63;86.98
51807;BME280;37865;51.304;9.536;2023-07-20T05:03:10;99687.34;;;16.67;86.67
51807;BME280;37865;51.304;9.536;2023-07-20T05:05:36;99673.00;;;16.70;86.32
51807;BME280;37865;51.304;9.536;2023-07-20T05:08:03;99675.66;;;16.75;85.99
51807;BME280;37865;51.304;9.536;2023-07-20T05:10:29;99677.22;;;16.81;85.61
51807;BME280;37865;51.304;9.536;2023-07-20T05:12:54;99684.91;;;16.84;85.70
51807;BME280;37865;51.304;9.536;2023-07-20T05:15:20;99680.44;;;16.88;85.13
51807;BME280;37865;51.304;9.536;2023-07-20T05:17:45;99680.44;;;16.88;85.21
51807;BME280;37865;51.304;9.536;2023-07-20T05:20:10;99686.25;;;16.86;84.90
51807;BME280;37865;51.304;9.536;2023-07-20T05:22:37;99687.84;;;16.87;84.92
51807;BME280;37865;51.304;9.536;2023-07-20T05:25:08;99691.13;;;16.89;84.52
51807;BME280;37865;51.304;9.536;2023-07-20T05:27:34;99683.13;;;16.93;84.33
51807;BME280;37865;51.304;9.536;2023-07-20T05:30:00;99686.09;;;16.97;84.12
51807;BME280;37865;51.304;9.536;2023-07-20T05:32:25;99690.56;;;16.93;83.90
51807;BME280;37865;51.304;9.536;2023-07-20T05:34:52;99692.78;;;16.91;84.19
51807;BME280;37865;51.304;9.536;2023-07-20T05:37:18;99685.88;;;16.93;84.18
51807;BME280;37865;51.304;9.536;2023-07-20T05:39:43;99689.22;;;16.90;84.24
51807;BME280;37865;51.304;9.536;2023-07-20T05:42:08;99683.38;;;16.92;84.58
51807;BME280;37865;51.304;9.536;2023-07-20T05:44:34;99691.13;;;16.89;84.81
51807;BME280;37865;51.304;9.536;2023-07-20T05:46:59;99686.66;;;16.94;84.80
51807;BME280;37865;51.304;9.536;2023-07-20T05:49:25;99681.41;;;16.97;84.56
51807;BME280;37865;51.304;9.536;2023-07-20T05:51:50;99678.56;;;17.02;83.94
51807;BME280;37865;51.304;9.536;2023-07-20T05:54:15;99690.53;;;17.11;83.75
51807;BME280;37865;51.304;9.536;2023-07-20T05:56:41;99685.69;;;17.22;83.62
51807;BME280;37865;51.304;9.536;2023-07-20T05:59:06;99685.53;;;17.32;82.94
51807;BME280;37865;51.304;9.536;2023-07-20T06:01:32;99691.25;;;17.35;82.81
51807;BME280;37865;51.304;9.536;2023-07-20T06:03:57;99689.75;;;17.43;82.29
51807;BME280;37865;51.304;9.536;2023-07-20T06:06:22;99696.28;;;17.47;82.20
51807;BME280;37865;51.304;9.536;2023-07-20T06:08:48;99708.28;;;17.56;81.71
51807;BME280;37865;51.304;9.536;2023-07-20T06:11:13;99693.59;;;17.60;81.29
51807;BME280;37865;51.304;9.536;2023-07-20T06:13:38;99698.47;;;17.50;81.51
51807;BME280;37865;51.304;9.536;2023-07-20T06:16:04;99705.34;;;17.47;82.12
51807;BME280;37865;51.304;9.536;2023-07-20T06:18:29;99704.84;;;17.45;82.34
51807;BME280;37865;51.304;9.536;2023-07-20T06:20:56;99705.47;;;17.42;82.74
51807;BME280;37865;51.304;9.536;2023-07-20T06:23:21;99706.56;;;17.41;83.22
51807;BME280;37865;51.304;9.536;2023-07-20T06:25:47;99710.97;;;17.42;83.18
51807;BME280;37865;51.304;9.536;2023-07-20T06:28:13;99715.06;;;17.45;83.33
51807;BME280;37865;51.304;9.536;2023-07-20T06:30:38;99722.16;;;17.51;83.51
51807;BME280;37865;51.304;9.536;2023-07-20T06:33:04;99720.84;;;17.62;83.17
51807;BME280;37865;51.304;9.536;2023-07-20T06:35:29;99711.59;;;17.72;83.02
51807;BME280;37865;51.304;9.536;2023-07-20T06:37:54;99708.47;;;17.78;82.36
51807;BME280;37865;51.304;9.536;2023-07-20T06:40:21;99707.75;;;17.86;81.80
51807;BME280;37865;51.304;9.536;2023-07-20T06:42:46;99706.22;;;17.94;81.41
51807;BME280;37865;51.304;9.536;2023-07-20T06:45:11;99709.94;;;18.03;80.74
51807;BME280;37865;51.304;9.536;2023-07-20T06:47:40;99721.69;;;18.08;80.37
51807;BME280;37865;51.304;9.536;2023-07-20T06:50:06;99716.47;;;18.07;79.97
51807;BME280;37865;51.304;9.536;2023-07-20T06:52:33;99715.66;;;18.06;80.06
51807;BME280;37865;51.304;9.536;2023-07-20T06:54:58;99712.06;;;18.06;79.44
51807;BME280;37865;51.304;9.536;2023-07-20T06:57:23;99713.19;;;18.05;79.28
51807;BME280;37865;51.304;9.536;2023-07-20T06:59:49;99714.31;;;18.04;79.34
51807;BME280;37865;51.304;9.536;2023-07-20T07:02:14;99718.28;;;17.98;79.21
51807;BME280;37865;51.304;9.536;2023-07-20T07:04:39;99718.88;;;17.81;79.82
51807;BME280;37865;51.304;9.536;2023-07-20T07:07:05;99716.88;;;17.54;81.87
51807;BME280;37865;51.304;9.536;2023-07-20T07:09:30;99727.97;;;17.31;83.66
51807;BME280;37865;51.304;9.536;2023-07-20T07:11:56;99732.59;;;17.17;85.34
51807;BME280;37865;51.304;9.536;2023-07-20T07:14:21;99727.47;;;17.10;86.45
51807;BME280;37865;51.304;9.536;2023-07-20T07:16:47;99732.19;;;17.10;87.48
51807;BME280;37865;51.304;9.536;2023-07-20T07:19:13;99736.91;;;17.04;87.94
51807;BME280;37865;51.304;9.536;2023-07-20T07:21:38;99740.34;;;16.96;88.37
51807;BME280;37865;51.304;9.536;2023-07-20T07:24:03;99742.59;;;16.94;87.57
51807;BME280;37865;51.304;9.536;2023-07-20T07:26:29;99743.09;;;16.96;87.83
51807;BME280;37865;51.304;9.536;2023-07-20T07:28:54;99746.69;;;16.97;87.31
51807;BME280;37865;51.304;9.536;2023-07-20T07:31:19;99748.09;;;16.94;87.04
51807;BME280;37865;51.304;9.536;2023-07-20T07:33:46;99759.06;;;16.99;86.76
51807;BME280;37865;51.304;9.536;2023-07-20T07:36:11;99753.44;;;17.04;86.97
51807;BME280;37865;51.304;9.536;2023-07-20T07:38:36;99751.69;;;17.13;87.15
51807;BME280;37865;51.304;9.536;2023-07-20T07:41:02;99756.13;;;17.28;87.27
51807;BME280;37865;51.304;9.536;2023-07-20T07:43:28;99754.72;;;17.30;87.20
51807;BME280;37865;51.304;9.536;2023-07-20T07:45:54;99758.53;;;17.34;87.49
51807;BME280;37865;51.304;9.536;2023-07-20T07:48:20;99763.72;;;17.36;87.30
51807;BME280;37865;51.304;9.536;2023-07-20T07:50:47;99768.34;;;17.40;87.20
51807;BME280;37865;51.304;9.536;2023-07-20T07:53:12;99760.91;;;17.41;87.09
51807;BME280;37865;51.304;9.536;2023-07-20T07:55:38;99769.56;;;17.53;86.64
51807;BME280;37865;51.304;9.536;2023-07-20T07:58:03;99769.00;;;17.70;86.34
51807;BME280;37865;51.304;9.536;2023-07-20T08:00:28;99776.72;;;17.86;85.10
51807;BME280;37865;51.304;9.536;2023-07-20T08:02:54;99777.66;;;17.95;83.98
51807;BME280;37865;51.304;9.536;2023-07-20T08:05:19;99780.53;;;18.04;83.67
51807;BME280;37865;51.304;9.536;2023-07-20T08:07:44;99781.28;;;18.09;83.12
51807;BME280;37865;51.304;9.536;2023-07-20T08:10:10;99768.72;;;18.17;82.47
51807;BME280;37865;51.304;9.536;2023-07-20T08:12:36;99771.38;;;18.22;81.76
51807;BME280;37865;51.304;9.536;2023-07-20T08:15:01;99776.59;;;18.23;81.01
51807;BME280;37865;51.304;9.536;2023-07-20T08:17:26;99781.38;;;18.18;80.73
51807;BME280;37865;51.304;9.536;2023-07-20T08:19:52;99782.06;;;18.10;80.75
51807;BME280;37865;51.304;9.536;2023-07-20T08:22:17;99784.72;;;18.01;80.87
51807;BME280;37865;51.304;9.536;2023-07-20T08:24:43;99790.00;;;17.84;80.76
51807;BME280;37865;51.304;9.536;2023-07-20T08:27:09;99795.94;;;17.59;81.97
51807;BME280;37865;51.304;9.536;2023-07-20T08:29:35;99801.34;;;17.27;84.00
51807;BME280;37865;51.304;9.536;2023-07-20T08:32:01;99793.41;;;17.02;85.60
51807;BME280;37865;51.304;9.536;2023-07-20T08:34:27;99800.13;;;16.96;86.58
51807;BME280;37865;51.304;9.536;2023-07-20T08:36:52;99799.69;;;17.07;87.48
51807;BME280;37865;51.304;9.536;2023-07-20T08:39:17;99809.44;;;17.18;87.04
51807;BME280;37865;51.304;9.536;2023-07-20T08:41:43;99802.22;;;17.22;86.98
51807;BME280;37865;51.304;9.536;2023-07-20T08:44:10;99813.72;;;17.29;87.06
51807;BME280;37865;51.304;9.536;2023-07-20T08:46:38;99805.53;;;17.43;86.59
51807;BME280;37865;51.304;9.536;2023-07-20T08:49:03;99816.19;;;17.49;85.81
51807;BME280;37865;51.304;9.536;2023-07-20T08:51:30;99819.59;;;17.60;85.58
51807;BME280;37865;51.304;9.536;2023-07-20T08:53:55;99816.16;;;17.68;83.91
51807;BME280;37865;51.304;9.536;2023-07-20T08:56:23;99819.00;;;17.82;84.04
51807;BME280;37865;51.304;9.536;2023-07-20T08:58:49;99820.06;;;17.99;83.58
51807;BME280;37865;51.304;9.536;2023-07-20T09:01:17;99822.16;;;18.07;82.27
51807;BME280;37865;51.304;9.536;2023-07-20T09:03:45;99823.47;;;18.10;81.31
51807;BME280;37865;51.304;9.536;2023-07-20T09:06:10;99821.97;;;18.17;80.63
51807;BME280;37865;51.304;9.536;2023-07-20T09:08:39;99825.06;;;18.29;80.24
51807;BME280;37865;51.304;9.536;2023-07-20T09:11:05;99826.00;;;18.38;79.79
51807;BME280;37865;51.304;9.536;2023-07-20T09:13:33;99818.88;;;18.51;79.43
51807;BME280;37865;51.304;9.536;2023-07-20T09:15:59;99820.63;;;18.74;78.88
51807;BME280;37865;51.304;9.536;2023-07-20T09:18:26;99819.91;;;18.96;77.59
51807;BME280;37865;51.304;9.536;2023-07-20T09:20:52;99825.09;;;19.11;76.62
51807;BME280;37865;51.304;9.536;2023-07-20T09:23:17;99824.97;;;19.30;75.44
51807;BME280;37865;51.304;9.536;2023-07-20T09:25:42;99827.63;;;19.48;73.82
51807;BME280;37865;51.304;9.536;2023-07-20T09:28:08;99826.22;;;19.59;72.60
51807;BME280;37865;51.304;9.536;2023-07-20T09:30:33;99831.16;;;19.62;71.57
51807;BME280;37865;51.304;9.536;2023-07-20T09:32:58;99828.50;;;19.57;70.07
51807;BME280;37865;51.304;9.536;2023-07-20T09:35:24;99837.69;;;19.88;69.48
51807;BME280;37865;51.304;9.536;2023-07-20T09:37:51;99839.81;;;20.27;67.54
51807;BME280;37865;51.304;9.536;2023-07-20T09:40:20;99826.47;;;20.68;66.72
51807;BME280;37865;51.304;9.536;2023-07-20T09:42:46;99828.31;;;21.38;64.91
51807;BME280;37865;51.304;9.536;2023-07-20T09:45:11;99824.63;;;21.94;61.84
51807;BME280;37865;51.304;9.536;2023-07-20T09:47:37;99815.47;;;22.57;60.21
51807;BME280;37865;51.304;9.536;2023-07-20T09:50:04;99826.50;;;22.82;56.86
51807;BME280;37865;51.304;9.536;2023-07-20T09:52:30;99829.66;;;22.72;55.98
51807;BME280;37865;51.304;9.536;2023-07-20T09:54:56;99821.66;;;23.00;55.45
51807;BME280;37865;51.304;9.536;2023-07-20T09:57:23;99830.31;;;23.36;54.59
51807;BME280;37865;51.304;9.536;2023-07-20T09:59:48;99819.72;;;23.71;53.27
51807;BME280;37865;51.304;9.536;2023-07-20T10:02:20;99825.72;;;23.61;53.03
51807;BME280;37865;51.304;9.536;2023-07-20T10:04:48;99829.78;;;23.13;54.19
51807;BME280;37865;51.304;9.536;2023-07-20T10:07:14;99839.19;;;22.54;55.74
51807;BME280;37865;51.304;9.536;2023-07-20T10:09:41;99830.63;;;22.04;57.10
51807;BME280;37865;51.304;9.536;2023-07-20T10:12:07;99831.47;;;21.79;57.37
51807;BME280;37865;51.304;9.536;2023-07-20T10:14:48;99829.50;;;21.88;57.07
51807;BME280;37865;51.304;9.536;2023-07-20T10:17:17;99826.50;;;22.27;56.43
51807;BME280;37865;51.304;9.536;2023-07-20T10:19:44;99829.25;;;22.91;54.92
51807;BME280;37865;51.304;9.536;2023-07-20T10:22:19;99827.84;;;23.43;52.39
51807;BME280;37865;51.304;9.536;2023-07-20T10:24:46;99827.47;;;23.45;52.61
51807;BME280;37865;51.304;9.536;2023-07-20T10:27:13;99826.53;;;23.41;52.36
51807;BME280;37865;51.304;9.536;2023-07-20T10:29:38;99829.31;;;23.41;50.92
51807;BME280;37865;51.304;9.536;2023-07-20T10:32:05;99821.38;;;23.51;49.84
51807;BME280;37865;51.304;9.536;2023-07-20T10:34:31;99829.66;;;23.60;48.78
51807;BME280;37865;51.304;9.536;2023-07-20T10:36:57;99815.59;;;23.56;48.46
51807;BME280;37865;51.304;9.536;2023-07-20T10:39:35;99820.22;;;23.73;47.30
51807;BME280;37865;51.304;9.536;2023-07-20T10:42:05;99809.84;;;23.61;45.88
51807;BME280;37865;51.304;9.536;2023-07-20T10:44:31;99810.22;;;23.31;46.40
51807;BME280;37865;51.304;9.536;2023-07-20T10:47:01;99809.44;;;23.51;45.70
51807;BME280;37865;51.304;9.536;2023-07-20T10:49:27;99806.88;;;23.99;45.14
51807;BME280;37865;51.304;9.536;2023-07-20T10:51:57;99804.19;;;24.68;44.88
51807;BME280;37865;51.304;9.536;2023-07-20T10:56:49;99791.47;;;25.31;43.95
51807;BME280;37865;51.304;9.536;2023-07-20T10:59:19;99790.09;;;25.25;43.32
51807;BME280;37865;51.304;9.536;2023-07-20T11:01:47;99791.28;;;25.24;43.09
51807;BME280;37865;51.304;9.536;2023-07-20T11:04:17;99793.47;;;25.18;42.87
51807;BME280;37865;51.304;9.536;2023-07-20T11:06:45;99795.25;;;24.74;42.54
51807;BME280;37865;51.304;9.536;2023-07-20T11:09:12;99785.88;;;24.34;42.83
51807;BME280;37865;51.304;9.536;2023-07-20T11:14:09;99791.28;;;25.24;41.60
51807;BME280;37865;51.304;9.536;2023-07-20T11:19:14;99783.56;;;25.57;40.86
51807;BME280;37865;51.304;9.536;2023-07-20T11:21:42;99784.22;;;25.94;39.58
51807;BME280;37865;51.304;9.536;2023-07-20T11:24:07;99774.94;;;26.05;38.04
51807;BME280;37865;51.304;9.536;2023-07-20T11:26:45;99781.50;;;26.09;38.57
51807;BME280;37865;51.304;9.536;2023-07-20T11:29:12;99774.97;;;26.49;37.43
51807;BME280;37865;51.304;9.536;2023-07-20T11:31:41;99780.16;;;26.78;37.94
51807;BME280;37865;51.304;9.536;2023-07-20T11:34:11;99776.22;;;26.67;37.33
51807;BME280;37865;51.304;9.536;2023-07-20T11:36:39;99776.13;;;26.48;36.95
51807;BME280;37865;51.304;9.536;2023-07-20T11:39:07;99774.09;;;25.89;37.72
51807;BME280;37865;51.304;9.536;2023-07-20T11:41:34;99772.44;;;26.00;36.61
51807;BME280;37865;51.304;9.536;2023-07-20T11:43:59;99776.81;;;26.13;35.86
51807;BME280;37865;51.304;9.536;2023-07-20T11:46:25;99771.56;;;26.12;35.68
51807;BME280;37865;51.304;9.536;2023-07-20T11:48:57;99759.53;;;26.23;34.88
51807;BME280;37865;51.304;9.536;2023-07-20T11:51:24;99769.28;;;25.74;35.97
51807;BME280;37865;51.304;9.536;2023-07-20T11:53:50;99766.13;;;25.48;36.16
51807;BME280;37865;51.304;9.536;2023-07-20T11:56:15;99772.25;;;25.66;35.54
51807;BME280;37865;51.304;9.536;2023-07-20T11:58:44;99772.47;;;25.61;35.40
51807;BME280;37865;51.304;9.536;2023-07-20T12:01:10;99770.28;;;25.54;35.56
51807;BME280;37865;51.304;9.536;2023-07-20T12:03:36;99759.28;;;26.01;35.15
51807;BME280;37865;51.304;9.536;2023-07-20T12:06:09;99763.00;;;26.79;34.10
51807;BME280;37865;51.304;9.536;2023-07-20T12:08:34;99754.84;;;26.59;32.99
51807;BME280;37865;51.304;9.536;2023-07-20T12:11:00;99765.56;;;26.41;32.85
51807;BME280;37865;51.304;9.536;2023-07-20T12:13:47;99767.66;;;26.60;32.25
51807;BME280;37865;51.304;9.536;2023-07-20T12:16:14;99760.34;;;26.40;32.37
51807;BME280;37865;51.304;9.536;2023-07-20T12:18:41;99765.50;;;26.69;31.59
51807;BME280;37865;51.304;9.536;2023-07-20T12:21:06;99755.19;;;27.04;31.27
51807;BME280;37865;51.304;9.536;2023-07-20T12:23:38;99756.94;;;27.28;31.45
51807;BME280;37865;51.304;9.536;2023-07-20T12:26:06;99762.97;;;27.30;31.20
51807;BME280;37865;51.304;9.536;2023-07-20T12:28:32;99753.16;;;27.20;31.10
51807;BME280;37865;51.304;9.536;2023-07-20T12:30:58;99762.38;;;27.21;30.90
51807;BME280;37865;51.304;9.536;2023-07-20T12:33:23;99759.25;;;26.91;31.06
51807;BME280;37865;51.304;9.536;2023-07-20T12:35:49;99755.81;;;26.97;30.56
51807;BME280;37865;51.304;9.536;2023-07-20T12:38:15;99750.41;;;26.89;30.84
51807;BME280;37865;51.304;9.536;2023-07-20T12:40:41;99742.72;;;27.36;31.28
51807;BME280;37865;51.304;9.536;2023-07-20T12:43:06;99742.38;;;27.95;30.72
51807;BME280;37865;51.304;9.536;2023-07-20T12:45:32;99745.19;;;28.37;29.30
51807;BME280;37865;51.304;9.536;2023-07-20T12:47:57;99751.13;;;28.54;28.97
51807;BME280;37865;51.304;9.536;2023-07-20T12:50:23;99754.19;;;28.69;28.81
51807;BME280;37865;51.304;9.536;2023-07-20T12:52:48;99751.72;;;28.90;28.04
51807;BME280;37865;51.304;9.536;2023-07-20T12:55:13;99737.50;;;29.05;27.88
51807;BME280;37865;51.304;9.536;2023-07-20T12:57:40;99743.16;;;29.09;27.24
51807;BME280;37865;51.304;9.536;2023-07-20T13:00:08;99735.75;;;29.20;27.58
51807;BME280;37865;51.304;9.536;2023-07-20T13:02:34;99740.94;;;29.18;27.65
51807;BME280;37865;51.304;9.536;2023-07-20T13:05:00;99738.63;;;28.52;28.30
51807;BME280;37865;51.304;9.536;2023-07-20T13:07:44;99738.25;;;27.70;28.57